KRFD/RFD METAR and TAF weather

Enter ICAO airport designator
Station Type Date Time Source
KRFD METAR 2022/12/10 01:45 UTC NOAA

KRFD 100145Z 05004KT 6SM -DZ BR OVC004 02/01 A3023 RMK AO2 DZB41 P0000 T00220011 $


Station Type Date Time Source
KRFD Decoded METAR 2022/12/10 01:45 UTC NOAA

GREATER ROCKFORD AIRPORT, IL, United States (KRFD) 42-12N 89-06W 221M
Dec 09, 2022 - 08:45 PM EST / 2022.12.10 0145 UTC
Wind: from the NE (050 degrees) at 5 MPH (4 KT):0
Visibility: 6 mile(s):0
Sky conditions: overcast
Weather: light drizzle; mist
Precipitation last hour: A trace
Temperature: 36.0 F (2.2 C)
Dew Point: 34.0 F (1.1 C)
Relative Humidity: 92%
Pressure (altimeter): 30.23 in. Hg (1023 hPa)
ob: KRFD 100145Z 05004KT 6SM -DZ BR OVC004 02/01 A3023 RMK AO2 DZB41 P0000 T00220011
cycle: 2

Station Type Date Time Source
KRFD TAF 2022/12/09 21:57 UTC NOAA

TAF
AMD KRFD 092054Z 0921/1018 08011KT 1 1/2SM -DZ BR OVC006
FM100300 08009KT 6SM BR OVC005

Example: see airport list